Time;durP1;ratioP1;P1;durP2;ratioP2;P2;SDS_P1;SDS_P2;PMS_P1;PMS_P2;Temp;Humidity;BMP_temperature;BMP_pressure;BME280_temperature;BME280_humidity;BME280_pressure;Samples;Min_cycle;Max_cycle;Signal;HPM_P1;HPM_P2
2022/12/12 00:00:23;;;;;;;0.80;0.80;;;;;;;0.71;100.00;97883.75;4915717;29;20538;-82
2022/12/12 00:02:50;;;;;;;0.90;0.90;;;;;;;0.67;100.00;97863.91;4915865;29;20494;-83
2022/12/12 00:05:20;;;;;;;0.82;0.82;;;;;;;0.69;100.00;97890.28;4915528;29;20560;-83
2022/12/12 00:07:48;;;;;;;0.80;0.80;;;;;;;0.70;100.00;97895.38;4915973;29;20055;-82
2022/12/12 00:10:15;;;;;;;0.80;0.80;;;;;;;0.66;100.00;97880.91;4916736;29;20043;-83
2022/12/12 00:12:42;;;;;;;0.73;0.73;;;;;;;0.67;100.00;97892.31;4919352;29;20074;-81
2022/12/12 00:15:09;;;;;;;0.90;0.90;;;;;;;0.63;100.00;97890.09;4916589;29;20143;-82
2022/12/12 00:17:37;;;;;;;0.90;0.90;;;;;;;0.67;100.00;97900.28;4915252;29;20522;-82
2022/12/12 00:20:04;;;;;;;1.00;1.00;;;;;;;0.68;100.00;97894.75;4915594;29;20575;-82
2022/12/12 00:22:32;;;;;;;0.90;0.90;;;;;;;0.66;100.00;97899.47;4915044;29;20052;-83
2022/12/12 00:24:59;;;;;;;0.88;0.88;;;;;;;0.64;100.00;97882.94;4915294;29;20052;-82
2022/12/12 00:27:26;;;;;;;0.88;0.88;;;;;;;0.65;100.00;97895.19;4913727;29;20119;-83
2022/12/12 00:29:53;;;;;;;0.77;0.77;;;;;;;0.63;100.00;97889.25;4898481;29;20044;-82
2022/12/12 00:32:21;;;;;;;0.90;0.90;;;;;;;0.60;100.00;97887.81;4915092;29;20059;-81
2022/12/12 00:34:48;;;;;;;0.90;0.90;;;;;;;0.63;100.00;97876.81;4915280;29;20048;-83
2022/12/12 00:37:16;;;;;;;0.80;0.80;;;;;;;0.61;100.00;97870.88;4915093;29;20048;-83
2022/12/12 00:39:43;;;;;;;0.90;0.90;;;;;;;0.63;100.00;97898.06;4914555;29;20071;-81
2022/12/12 00:42:09;;;;;;;0.90;0.90;;;;;;;0.64;100.00;97890.91;4914932;29;20077;-82
2022/12/12 00:44:36;;;;;;;0.80;0.80;;;;;;;0.64;100.00;97889.06;4914757;29;20048;-82
2022/12/12 00:47:04;;;;;;;0.80;0.80;;;;;;;0.65;100.00;97884.56;4914838;29;20060;-83
2022/12/12 00:49:31;;;;;;;0.90;0.90;;;;;;;0.64;100.00;97898.88;4914800;29;20048;-83
2022/12/12 00:51:58;;;;;;;0.90;0.90;;;;;;;0.67;100.00;97887.00;4914893;29;20055;-82
2022/12/12 00:54:25;;;;;;;0.80;0.80;;;;;;;0.69;100.00;97875.16;4896998;29;20080;-81
2022/12/12 00:56:52;;;;;;;0.80;0.80;;;;;;;0.67;100.00;97877.19;4898006;29;20052;-83
2022/12/12 00:59:18;;;;;;;0.90;0.90;;;;;;;0.74;100.00;97885.97;4914659;29;20051;-83
2022/12/12 01:01:46;;;;;;;0.90;0.90;;;;;;;0.72;100.00;97890.66;4914490;29;20523;-83
2022/12/12 01:04:13;;;;;;;0.90;0.90;;;;;;;0.74;100.00;97893.94;4914662;29;20059;-82
2022/12/12 01:06:40;;;;;;;0.80;0.80;;;;;;;0.74;100.00;97888.63;4897363;29;20539;-82
2022/12/12 01:09:07;;;;;;;0.73;0.73;;;;;;;0.76;100.00;97889.25;4914725;29;20143;-82
2022/12/12 01:11:34;;;;;;;0.80;0.80;;;;;;;0.79;100.00;97885.34;4914348;29;20146;-83
2022/12/12 01:14:01;;;;;;;0.80;0.80;;;;;;;0.79;100.00;97888.00;4914709;29;20051;-82
2022/12/12 01:16:29;;;;;;;0.80;0.80;;;;;;;0.79;100.00;97882.69;4897326;29;20047;-82
2022/12/12 01:18:56;;;;;;;0.90;0.90;;;;;;;0.78;100.00;97886.34;4914362;29;20156;-82
2022/12/12 01:21:24;;;;;;;0.90;0.90;;;;;;;0.79;100.00;97885.34;4914247;29;20056;-83
2022/12/12 01:23:51;;;;;;;0.90;0.90;;;;;;;0.79;100.00;97890.66;4914250;29;20422;-83
2022/12/12 01:26:21;;;;;;;0.90;0.90;;;;;;;0.78;100.00;97891.66;4914194;29;20051;-82
2022/12/12 01:28:49;;;;;;;0.80;0.80;;;;;;;0.77;100.00;97877.56;4914273;29;20131;-83
2022/12/12 01:31:16;;;;;;;0.80;0.80;;;;;;;0.79;100.00;97886.16;4914275;29;20063;-82
2022/12/12 01:33:44;;;;;;;0.77;0.77;;;;;;;0.79;100.00;97885.34;4914333;29;20148;-82
2022/12/12 01:36:17;;;;;;;0.82;0.82;;;;;;;0.83;100.00;97892.66;4897345;29;20059;-82
2022/12/12 01:38:45;;;;;;;0.88;0.88;;;;;;;0.84;100.00;97899.63;4913780;29;20147;-82
2022/12/12 01:41:13;;;;;;;0.90;0.90;;;;;;;0.83;100.00;97899.81;4914186;29;20051;-82
2022/12/12 01:43:40;;;;;;;0.80;0.80;;;;;;;0.82;100.00;97884.94;4913977;29;20044;-83
2022/12/12 01:46:32;;;;;;;0.85;0.85;;;;;;;0.86;100.00;97894.94;4897182;29;20051;-83
2022/12/12 01:49:12;;;;;;;0.82;0.82;;;;;;;0.84;100.00;97896.97;4914165;29;20134;-82
2022/12/12 01:51:41;;;;;;;0.90;0.90;;;;;;;0.84;100.00;97896.97;4912734;29;20052;-82
2022/12/12 01:54:12;;;;;;;0.73;0.73;;;;;;;0.86;100.00;97891.44;4897170;29;20048;-82
2022/12/12 01:56:41;;;;;;;0.80;0.80;;;;;;;0.86;100.00;97892.28;4913980;29;20056;-81
2022/12/12 01:59:10;;;;;;;0.80;0.80;;;;;;;0.88;100.00;97883.25;4914189;29;20086;-81
2022/12/12 02:01:38;;;;;;;0.80;0.80;;;;;;;0.95;100.00;97890.19;4881517;29;20048;-81
2022/12/12 02:04:06;;;;;;;0.75;0.75;;;;;;;0.94;100.00;97890.38;4913011;29;20056;-83
2022/12/12 02:06:34;;;;;;;0.90;0.90;;;;;;;0.98;100.00;97887.09;4914677;29;20342;-82
2022/12/12 02:09:04;;;;;;;0.85;0.85;;;;;;;0.97;100.00;97893.47;4917899;29;20103;-80
2022/12/12 02:11:33;;;;;;;0.90;0.90;;;;;;;0.98;100.00;97895.06;4901040;29;20103;-82
2022/12/12 02:14:00;;;;;;;0.80;0.80;;;;;;;1.01;100.00;97897.34;4917745;29;20044;-81
2022/12/12 02:16:46;;;;;;;0.90;0.90;;;;;;;1.01;100.00;97899.16;4917420;29;20168;-82
2022/12/12 02:19:13;;;;;;;0.90;0.90;;;;;;;1.04;100.00;97896.09;4917831;29;20422;-82
2022/12/12 02:21:56;;;;;;;0.85;0.85;;;;;;;1.06;100.00;97894.03;4900166;29;20055;-82
2022/12/12 02:24:55;;;;;;;0.70;0.70;;;;;;;1.05;100.00;97900.38;4917538;29;20159;-83
2022/12/12 02:27:57;;;;;;;0.77;0.77;;;;;;;1.04;100.00;97896.91;4917304;29;20052;-82
2022/12/12 02:30:42;;;;;;;0.80;0.80;;;;;;;1.04;100.00;97898.75;4876813;29;20056;-83
2022/12/12 02:33:24;;;;;;;0.90;0.90;;;;;;;1.03;100.00;97899.75;4861856;29;20480;-82
2022/12/12 02:36:14;;;;;;;0.80;0.80;;;;;;;1.04;100.00;97896.91;4880808;29;20096;-81
2022/12/12 02:39:00;;;;;;;0.90;0.90;;;;;;;1.06;100.00;97902.00;4895884;29;20057;-82
2022/12/12 02:41:38;;;;;;;0.70;0.70;;;;;;;1.03;100.00;97897.09;4895740;29;20088;-81
2022/12/12 02:44:10;;;;;;;0.88;0.88;;;;;;;1.02;100.00;97903.47;4896085;29;20052;-82
2022/12/12 02:47:15;;;;;;;0.80;0.80;;;;;;;1.03;100.00;97905.88;4895704;29;20128;-82
2022/12/12 02:49:49;;;;;;;1.00;1.00;;;;;;;1.06;100.00;97910.81;4895617;29;20140;-83
2022/12/12 02:52:16;;;;;;;0.70;0.70;;;;;;;1.12;100.00;97911.00;4896061;29;20052;-82
2022/12/12 02:54:43;;;;;;;0.90;0.90;;;;;;;1.11;100.00;97888.88;4895650;29;20562;-82
2022/12/12 02:57:21;;;;;;;0.80;0.80;;;;;;;1.07;100.00;97893.00;4895829;29;20057;-82
2022/12/12 02:59:55;;;;;;;0.80;0.80;;;;;;;1.15;100.00;97914.03;4895517;29;20056;-83
2022/12/12 03:02:46;;;;;;;0.90;0.90;;;;;;;1.16;100.00;97923.63;4895689;29;20055;-82
2022/12/12 03:08:47;;;;;;;0.80;0.80;;;;;;;1.17;100.00;97919.94;4883947;29;20115;-83
2022/12/12 03:11:21;;;;;;;0.90;0.90;;;;;;;1.14;100.00;97916.88;4898575;29;20511;-82
2022/12/12 03:13:56;;;;;;;0.87;0.87;;;;;;;1.12;100.00;97909.13;4883244;29;20056;-85
2022/12/12 03:16:27;;;;;;;;;;;;;;;1.17;100.00;97909.31;4918390;29;20183;-82
2022/12/12 03:18:59;;;;;;;0.90;0.90;;;;;;;1.15;100.00;97921.19;4902431;29;19942;-83
2022/12/12 03:21:40;;;;;;;0.80;0.80;;;;;;;1.20;100.00;97914.22;4900081;29;20052;-83
2022/12/12 03:24:21;;;;;;;0.90;0.90;;;;;;;1.23;100.00;97921.75;4915267;29;20095;-81
2022/12/12 03:26:53;;;;;;;0.90;0.90;;;;;;;1.25;100.00;97926.88;4899203;29;20143;-83
2022/12/12 03:29:27;;;;;;;0.90;0.90;;;;;;;1.24;100.00;97920.75;4899519;29;20071;-80
2022/12/12 03:31:59;;;;;;;0.80;0.80;;;;;;;1.25;100.00;97933.00;4899720;29;20056;-81
2022/12/12 03:34:32;;;;;;;0.80;0.80;;;;;;;1.27;100.00;97893.75;4916158;29;20054;-83
2022/12/12 03:37:33;;;;;;;0.90;0.90;;;;;;;1.29;100.00;97923.59;4898723;29;20047;-83
2022/12/12 03:40:04;;;;;;;0.80;0.80;;;;;;;1.23;100.00;97918.28;4842272;29;20691;-84
2022/12/12 03:42:48;;;;;;;0.80;0.80;;;;;;;1.26;100.00;97908.03;4842177;29;20082;-83
2022/12/12 03:46:12;;;;;;;0.85;0.85;;;;;;;1.32;100.00;97918.84;4842739;29;20049;-83
2022/12/12 03:48:46;;;;;;;0.90;0.90;;;;;;;1.27;100.00;97904.38;4827726;29;20145;-84
2022/12/12 03:51:24;;;;;;;0.90;0.90;;;;;;;1.27;100.00;97919.50;4809627;29;20058;-82
2022/12/12 03:53:58;;;;;;;0.80;0.80;;;;;;;1.27;100.00;97915.00;4824289;29;20064;-85
2022/12/12 03:56:29;;;;;;;0.90;0.90;;;;;;;1.27;100.00;97917.66;4824049;29;20085;-82
2022/12/12 03:59:02;;;;;;;0.80;0.80;;;;;;;1.27;100.00;97930.16;4823911;29;20221;-82
2022/12/12 04:01:40;;;;;;;0.80;0.80;;;;;;;1.25;100.00;97927.69;4838886;29;20065;-82
2022/12/12 04:04:14;;;;;;;0.90;0.90;;;;;;;1.25;100.00;97917.06;4824251;29;20064;-80
2022/12/12 04:06:49;;;;;;;0.80;0.80;;;;;;;1.25;100.00;97911.72;4824107;29;20137;-83
2022/12/12 04:15:38;;;;;;;0.80;0.80;;;;;;;1.20;100.00;97906.25;4842921;29;20049;-84
2022/12/12 04:18:19;;;;;;;0.90;0.90;;;;;;;1.23;100.00;97911.13;4879054;29;20072;-84
2022/12/12 04:24:02;;;;;;;0.88;0.88;;;;;;;1.15;100.00;97906.06;4889164;29;20147;-85
2022/12/12 04:26:39;;;;;;;0.90;0.90;;;;;;;1.19;100.00;97923.22;4897686;29;20056;-84
2022/12/12 04:29:41;;;;;;;0.90;0.90;;;;;;;1.20;100.00;97914.22;4897911;29;20080;-84
2022/12/12 04:32:23;;;;;;;0.90;0.90;;;;;;;1.20;100.00;97924.03;4898202;29;20060;-84
2022/12/12 04:34:57;;;;;;;0.90;0.90;;;;;;;1.14;100.00;97901.78;4898843;29;20052;-85
2022/12/12 04:37:54;;;;;;;0.80;0.80;;;;;;;1.20;100.00;97930.16;4915457;29;20111;-84
2022/12/12 04:40:28;;;;;;;0.90;0.90;;;;;;;1.14;100.00;97909.75;4856535;29;21108;-84
2022/12/12 04:43:00;;;;;;;0.90;0.90;;;;;;;1.16;100.00;97922.81;4841013;29;20487;-85
2022/12/12 04:45:30;;;;;;;0.80;0.80;;;;;;;1.20;100.00;97913.41;4841671;29;20084;-84
2022/12/12 04:47:59;;;;;;;0.90;0.90;;;;;;;1.14;100.00;97903.59;4825494;29;20064;-85
2022/12/12 04:50:27;;;;;;;0.82;0.82;;;;;;;1.20;100.00;97900.91;4825999;29;20073;-85
2022/12/12 04:52:56;;;;;;;0.90;0.90;;;;;;;1.24;100.00;97915.44;4856292;29;20583;-85
2022/12/12 04:55:26;;;;;;;0.90;0.90;;;;;;;1.22;100.00;97912.16;4840954;29;20193;-85
2022/12/12 04:57:55;;;;;;;0.80;0.80;;;;;;;1.23;100.00;97923.59;4840919;29;20049;-85
2022/12/12 05:00:24;;;;;;;0.90;0.90;;;;;;;1.23;100.00;97907.66;4856264;29;20574;-85
2022/12/12 05:03:27;;;;;;;0.90;0.90;;;;;;;1.23;100.00;97924.41;4810783;29;20045;-85
2022/12/12 05:05:57;;;;;;;0.80;0.80;;;;;;;1.17;100.00;97914.63;4801257;29;20059;-85
2022/12/12 05:08:28;;;;;;;0.90;0.90;;;;;;;1.22;100.00;97922.78;4800596;29;20058;-85
2022/12/12 05:10:59;;;;;;;0.85;0.85;;;;;;;1.23;100.00;97919.09;4801357;29;20063;-85
2022/12/12 05:13:31;;;;;;;0.90;0.90;;;;;;;1.23;100.00;97926.25;4785641;29;20058;-85
2022/12/12 05:15:59;;;;;;;0.80;0.80;;;;;;;1.23;100.00;97939.56;4809348;29;20576;-84
2022/12/12 05:18:26;;;;;;;0.80;0.80;;;;;;;1.23;100.00;97942.22;4838708;29;20140;-85
2022/12/12 05:20:54;;;;;;;0.80;0.80;;;;;;;1.21;100.00;97947.72;4838918;29;20057;-85
2022/12/12 05:23:21;;;;;;;0.90;0.90;;;;;;;1.19;100.00;97933.00;4828284;29;20064;-85
2022/12/12 05:25:48;;;;;;;0.90;0.90;;;;;;;1.22;100.00;97922.78;4837534;29;20525;-84
2022/12/12 05:28:15;;;;;;;0.80;0.80;;;;;;;1.20;100.00;97922.19;4837467;29;20527;-85
2022/12/12 05:30:50;;;;;;;0.90;0.90;;;;;;;1.21;100.00;97933.63;4837255;29;20062;-86
2022/12/12 05:33:17;;;;;;;0.80;0.80;;;;;;;1.23;100.00;97932.38;4821698;29;20600;-85
2022/12/12 05:35:44;;;;;;;0.80;0.80;;;;;;;1.19;100.00;97922.38;4835827;29;20046;-83
2022/12/12 05:38:11;;;;;;;0.70;0.70;;;;;;;1.21;100.00;97934.44;4837298;29;20053;-85
2022/12/12 05:40:38;;;;;;;0.80;0.80;;;;;;;1.24;100.00;97926.06;4841171;29;20100;-84
2022/12/12 05:43:05;;;;;;;0.88;0.88;;;;;;;1.21;100.00;97926.47;4883680;29;20052;-83
2022/12/12 05:45:32;;;;;;;0.90;0.90;;;;;;;1.20;100.00;97924.84;4556636;29;10000290;-85
2022/12/12 05:47:59;;;;;;;0.80;0.80;;;;;;;1.20;100.00;97930.16;4892906;29;20053;-86
2022/12/12 05:50:26;;;;;;;0.90;0.90;;;;;;;1.20;100.00;97927.50;4893094;29;20056;-85
2022/12/12 05:52:53;;;;;;;0.90;0.90;;;;;;;1.17;100.00;97908.50;4890966;29;20053;-85
2022/12/12 05:55:20;;;;;;;0.90;0.90;;;;;;;1.18;100.00;97934.88;4881920;29;20056;-84
2022/12/12 05:57:47;;;;;;;0.90;0.90;;;;;;;1.15;100.00;97939.78;4879268;29;20609;-85
2022/12/12 06:00:15;;;;;;;0.90;0.90;;;;;;;1.15;100.00;97951.22;4884382;29;20053;-85
2022/12/12 06:02:42;;;;;;;0.90;0.90;;;;;;;1.15;100.00;97935.28;4890471;29;20053;-85
2022/12/12 06:05:11;;;;;;;0.90;0.90;;;;;;;1.16;100.00;97942.22;4890896;29;20056;-84
2022/12/12 06:07:39;;;;;;;0.90;0.90;;;;;;;1.14;100.00;97935.50;4884708;29;20079;-85
2022/12/12 06:10:07;;;;;;;0.90;0.90;;;;;;;1.13;100.00;97941.84;4884801;29;20055;-85
2022/12/12 06:12:34;;;;;;;0.80;0.80;;;;;;;1.17;100.00;97951.03;4876017;29;20105;-84
2022/12/12 06:15:02;;;;;;;0.90;0.90;;;;;;;1.16;100.00;97939.56;4872650;29;20117;-86
2022/12/12 06:17:29;;;;;;;0.90;0.90;;;;;;;1.16;100.00;97933.44;4859438;29;20143;-86
2022/12/12 06:19:59;;;;;;;0.80;0.80;;;;;;;1.16;100.00;97928.94;4884492;29;20151;-84
2022/12/12 06:22:27;;;;;;;0.90;0.90;;;;;;;1.11;100.00;97925.28;4881732;29;20434;-86
2022/12/12 06:24:55;;;;;;;0.80;0.80;;;;;;;1.16;100.00;97926.28;4885717;29;20508;-84
2022/12/12 06:27:23;;;;;;;0.80;0.80;;;;;;;1.19;100.00;97933.84;4872330;29;20452;-87
2022/12/12 06:29:50;;;;;;;0.90;0.90;;;;;;;1.15;100.00;97922.00;4872103;29;21037;-88
2022/12/12 06:32:17;;;;;;;0.80;0.80;;;;;;;1.14;100.00;97933.66;4873920;29;20057;-88
2022/12/12 06:34:44;;;;;;;0.90;0.90;;;;;;;1.02;100.00;97912.25;4880007;29;20052;-90
2022/12/12 06:37:12;;;;;;;0.82;0.82;;;;;;;1.11;100.00;97944.69;4885522;29;20080;-87
2022/12/12 06:39:43;;;;;;;0.80;0.80;;;;;;;1.13;100.00;97939.19;4892692;29;20139;-88
2022/12/12 06:42:10;;;;;;;0.80;0.80;;;;;;;1.13;100.00;97945.31;4875969;29;20087;-87
2022/12/12 06:44:37;;;;;;;0.80;0.80;;;;;;;1.11;100.00;97938.56;4869611;29;20542;-86
2022/12/12 06:47:10;;;;;;;0.90;0.90;;;;;;;1.13;100.00;97934.69;4891929;29;20049;-84
2022/12/12 06:49:38;;;;;;;0.80;0.80;;;;;;;1.09;100.00;97936.13;4893944;29;20639;-86
2022/12/12 06:52:05;;;;;;;0.82;0.82;;;;;;;1.17;100.00;97946.53;4895333;29;20053;-85
2022/12/12 06:54:32;;;;;;;0.70;0.70;;;;;;;1.16;100.00;97939.56;4900460;29;20048;-85
2022/12/12 06:56:59;;;;;;;0.80;0.80;;;;;;;1.07;100.00;97924.91;4899506;29;20528;-86
2022/12/12 06:59:29;;;;;;;0.90;0.90;;;;;;;1.20;100.00;97924.84;4888479;29;20072;-86
2022/12/12 07:01:56;;;;;;;0.90;0.90;;;;;;;1.20;100.00;97951.41;4857183;29;20056;-87
2022/12/12 07:04:24;;;;;;;0.90;0.90;;;;;;;1.20;100.00;97967.38;4880317;29;20505;-86
2022/12/12 07:06:52;;;;;;;0.80;0.80;;;;;;;1.20;100.00;97966.56;4883685;29;20452;-86
2022/12/12 07:09:19;;;;;;;0.90;0.90;;;;;;;1.11;100.00;97963.31;4893729;29;20056;-86
2022/12/12 07:11:46;;;;;;;0.90;0.90;;;;;;;1.22;100.00;97935.28;4897594;29;20503;-84
2022/12/12 07:14:13;;;;;;;0.77;0.77;;;;;;;1.24;100.00;97952.66;4896495;29;20056;-86
2022/12/12 07:16:41;;;;;;;0.73;0.73;;;;;;;1.24;100.00;97957.97;4889162;29;20053;-84
2022/12/12 07:19:09;;;;;;;0.80;0.80;;;;;;;1.25;100.00;97962.25;4886936;29;20053;-86
2022/12/12 07:21:37;;;;;;;0.90;0.90;;;;;;;1.23;100.00;97955.50;4884081;29;20053;-88
2022/12/12 07:24:05;;;;;;;0.80;0.80;;;;;;;1.28;100.00;97953.84;4872006;29;20061;-87
2022/12/12 07:26:32;;;;;;;0.80;0.80;;;;;;;1.29;100.00;97944.00;4893581;29;20163;-84
2022/12/12 07:29:02;;;;;;;0.80;0.80;;;;;;;1.33;100.00;97960.38;4905289;29;20060;-87
2022/12/12 07:31:29;;;;;;;0.80;0.80;;;;;;;1.35;100.00;97969.78;4882917;29;20053;-85
2022/12/12 07:33:56;;;;;;;0.80;0.80;;;;;;;1.37;100.00;97951.78;4889061;29;20504;-86
2022/12/12 07:36:23;;;;;;;0.85;0.85;;;;;;;1.40;100.00;97971.81;4892828;29;20504;-87
2022/12/12 07:38:50;;;;;;;0.80;0.80;;;;;;;1.35;100.00;97967.13;4863691;29;20053;-85
2022/12/12 07:41:19;;;;;;;0.80;0.80;;;;;;;1.34;100.00;97960.16;4897583;29;20052;-85
2022/12/12 07:43:51;;;;;;;0.90;0.90;;;;;;;1.30;100.00;97962.44;4860483;29;20083;-85
2022/12/12 07:46:22;;;;;;;0.90;0.90;;;;;;;1.32;100.00;97962.22;4888315;29;20064;-85
2022/12/12 07:48:53;;;;;;;0.90;0.90;;;;;;;1.34;100.00;97952.16;4895454;29;20143;-87
2022/12/12 07:51:20;;;;;;;0.77;0.77;;;;;;;1.33;100.00;97955.06;4880805;29;20139;-85
2022/12/12 07:53:47;;;;;;;0.80;0.80;;;;;;;1.35;100.00;97958.34;4864531;29;20049;-85
2022/12/12 07:56:16;;;;;;;0.90;0.90;;;;;;;1.40;100.00;97974.47;4897168;29;20052;-87
2022/12/12 07:58:44;;;;;;;0.90;0.90;;;;;;;1.41;100.00;97957.47;4896297;29;20746;-86
2022/12/12 08:01:19;;;;;;;0.90;0.90;;;;;;;1.39;100.00;97954.19;4891195;29;20072;-85
2022/12/12 08:03:47;;;;;;;0.90;0.90;;;;;;;1.36;100.00;97957.28;4876944;29;20745;-86
2022/12/12 08:06:15;;;;;;;0.80;0.80;;;;;;;1.33;100.00;97955.06;4887696;29;20075;-84
2022/12/12 08:08:49;;;;;;;0.90;0.90;;;;;;;1.37;100.00;97972.19;4885734;29;20531;-85
2022/12/12 08:11:18;;;;;;;0.80;0.80;;;;;;;1.35;100.00;97955.66;4895772;29;20467;-83
2022/12/12 08:13:45;;;;;;;0.80;0.80;;;;;;;1.32;100.00;97964.03;4846965;29;20051;-85
2022/12/12 08:16:21;;;;;;;0.90;0.90;;;;;;;1.33;100.00;97971.81;4879831;29;20076;-84
2022/12/12 08:18:49;;;;;;;0.80;0.80;;;;;;;1.35;100.00;97953.81;4860150;29;20068;-84
2022/12/12 08:21:16;;;;;;;0.80;0.80;;;;;;;1.40;100.00;97969.16;4896600;29;20052;-86
2022/12/12 08:23:54;;;;;;;0.82;0.82;;;;;;;1.41;100.00;97960.13;4884602;29;20123;-84
2022/12/12 08:26:21;;;;;;;0.90;0.90;;;;;;;1.41;100.00;97968.09;4908878;29;20049;-85
2022/12/12 08:28:52;;;;;;;0.80;0.80;;;;;;;1.41;100.00;97971.56;4906126;29;20084;-85
2022/12/12 08:31:20;;;;;;;0.80;0.80;;;;;;;1.41;100.00;97968.91;4903577;29;20147;-86
2022/12/12 08:33:49;;;;;;;0.80;0.80;;;;;;;1.44;100.00;97978.31;4906711;29;20061;-84
2022/12/12 08:36:19;;;;;;;0.88;0.88;;;;;;;1.44;100.00;97984.47;4903541;29;20477;-85
2022/12/12 08:38:47;;;;;;;0.80;0.80;;;;;;;1.47;100.00;97977.91;4891124;29;20179;-84
2022/12/12 08:41:15;;;;;;;0.90;0.90;;;;;;;1.43;100.00;97971.38;4912780;29;20048;-86
2022/12/12 08:43:42;;;;;;;0.80;0.80;;;;;;;1.44;100.00;97983.63;4877082;29;20714;-85
2022/12/12 08:46:13;;;;;;;0.90;0.90;;;;;;;1.41;100.00;97978.75;4904268;29;20048;-87
2022/12/12 08:48:45;;;;;;;0.90;0.90;;;;;;;1.41;100.00;97976.09;4903377;29;20086;-87
2022/12/12 08:51:13;;;;;;;0.80;0.80;;;;;;;1.43;100.00;97976.69;4908772;29;20106;-87
2022/12/12 08:53:43;;;;;;;0.90;0.90;;;;;;;1.44;100.00;97983.63;4913526;29;20058;-86
2022/12/12 08:56:18;;;;;;;0.90;0.90;;;;;;;1.40;100.00;97985.09;4886831;29;20432;-90
2022/12/12 08:58:45;;;;;;;0.80;0.80;;;;;;;1.43;100.00;97982.81;4908376;29;20595;-86
2022/12/12 09:01:21;;;;;;;0.80;0.80;;;;;;;1.43;100.00;97976.69;4903766;29;20055;-86
2022/12/12 09:03:50;;;;;;;0.80;0.80;;;;;;;1.48;100.00;97987.50;4899428;29;20053;-86
2022/12/12 09:06:17;;;;;;;0.90;0.90;;;;;;;1.48;100.00;97982.19;4908779;29;20117;-86
2022/12/12 09:08:44;;;;;;;0.80;0.80;;;;;;;1.50;100.00;97982.81;4896230;29;20146;-86
2022/12/12 09:11:13;;;;;;;0.80;0.80;;;;;;;1.48;100.00;97990.16;4897456;29;20519;-86
2022/12/12 09:13:44;;;;;;;0.80;0.80;;;;;;;1.44;100.00;97984.47;4845089;29;20048;-83
2022/12/12 09:16:14;;;;;;;0.80;0.80;;;;;;;1.49;100.00;98002.44;4879219;29;20048;-83
2022/12/12 09:18:42;;;;;;;0.80;0.80;;;;;;;1.48;100.00;97984.84;4909681;29;20483;-84
2022/12/12 09:21:16;;;;;;;0.90;0.90;;;;;;;1.44;100.00;97980.97;4866177;29;20061;-83
2022/12/12 09:23:44;;;;;;;0.70;0.70;;;;;;;1.47;100.00;97994.69;4886243;29;20056;-83
2022/12/12 09:26:17;;;;;;;0.80;0.80;;;;;;;1.42;100.00;97985.69;4893075;29;20063;-84
2022/12/12 09:28:44;;;;;;;0.77;0.77;;;;;;;1.54;100.00;97984.00;4892852;29;20123;-84
2022/12/12 09:31:13;;;;;;;0.90;0.90;;;;;;;1.52;100.00;97962.97;4893364;29;20053;-83
2022/12/12 09:33:41;;;;;;;0.80;0.80;;;;;;;1.62;100.00;97988.25;4873568;29;20512;-87
2022/12/12 09:36:10;;;;;;;0.80;0.80;;;;;;;1.63;100.00;97974.75;4893454;29;20076;-85
2022/12/12 09:38:38;;;;;;;0.80;0.80;;;;;;;1.65;100.00;97987.84;4876816;29;20048;-83
2022/12/12 09:41:19;;;;;;;0.80;0.80;;;;;;;1.66;100.00;97987.63;4890594;29;20480;-83
2022/12/12 09:43:52;;;;;;;0.80;0.80;;;;;;;1.62;100.00;97989.09;4887062;29;20048;-89
2022/12/12 09:46:37;;;;;;;0.80;0.80;;;;;;;1.66;100.00;97968.19;4885753;29;20049;-82
2022/12/12 09:49:04;;;;;;;;;;;;;;;1.66;100.00;97982.31;4884555;29;20064;-82
2022/12/12 09:51:31;;;;;;;0.88;0.88;;;;;;;1.62;100.00;97972.31;4875736;29;19955;-83
2022/12/12 09:53:59;;;;;;;0.80;0.80;;;;;;;1.60;100.00;97982.34;4891000;29;20049;-83
2022/12/12 09:56:46;;;;;;;0.90;0.90;;;;;;;1.63;100.00;97971.28;4872376;29;20765;-83
2022/12/12 09:59:25;;;;;;;0.90;0.90;;;;;;;1.65;100.00;97974.56;4888913;29;20061;-81
2022/12/12 10:02:22;;;;;;;0.80;0.80;;;;;;;1.66;100.00;97960.22;4536171;29;10001055;-82
2022/12/12 10:04:49;;;;;;;0.90;0.90;;;;;;;1.65;100.00;97975.38;4889058;29;20472;-83
2022/12/12 10:07:26;;;;;;;0.90;0.90;;;;;;;1.63;100.00;97972.09;4884500;29;20124;-82
2022/12/12 10:10:25;;;;;;;0.70;0.70;;;;;;;1.63;100.00;97981.94;4885679;29;20049;-83
2022/12/12 10:12:56;;;;;;;0.80;0.80;;;;;;;1.62;100.00;97975.81;4872576;29;20139;-83
2022/12/12 10:15:39;;;;;;;0.80;0.80;;;;;;;1.64;100.00;97973.72;4872479;29;20059;-83
2022/12/12 10:18:14;;;;;;;0.82;0.82;;;;;;;1.70;100.00;97961.44;4886607;29;20053;-82
2022/12/12 10:20:54;;;;;;;1.00;1.00;;;;;;;1.64;100.00;97967.59;4887950;29;20080;-82
2022/12/12 10:23:41;;;;;;;0.80;0.80;;;;;;;1.74;100.00;97973.28;4878180;29;20159;-84
2022/12/12 10:26:15;;;;;;;0.80;0.80;;;;;;;1.60;100.00;97961.91;4889067;29;20072;-84
2022/12/12 10:28:42;;;;;;;0.90;0.90;;;;;;;1.68;100.00;97969.63;4905845;29;20060;-84
2022/12/12 10:31:33;;;;;;;0.80;0.80;;;;;;;1.69;100.00;97965.91;4914818;29;20048;-83
2022/12/12 10:34:15;;;;;;;0.70;0.70;;;;;;;1.70;100.00;97964.09;4919667;29;20060;-83
2022/12/12 10:36:57;;;;;;;0.80;0.80;;;;;;;1.72;100.00;97964.69;4918730;29;20060;-83
2022/12/12 10:39:48;;;;;;;0.70;0.70;;;;;;;1.72;100.00;97965.53;4911769;29;20060;-82
2022/12/12 10:42:39;;;;;;;0.80;0.80;;;;;;;1.76;100.00;97975.72;4900586;29;20044;-81
2022/12/12 10:45:35;;;;;;;0.85;0.85;;;;;;;1.74;100.00;97959.97;4910376;29;20074;-84
2022/12/12 10:48:03;;;;;;;0.90;0.90;;;;;;;1.73;100.00;97971.66;4896085;29;20078;-84
2022/12/12 10:50:48;;;;;;;0.80;0.80;;;;;;;1.69;100.00;97962.44;4912707;29;20050;-84
2022/12/12 10:53:15;;;;;;;0.80;0.80;;;;;;;1.73;100.00;97966.31;4881237;29;20713;-81
2022/12/12 10:55:52;;;;;;;0.80;0.80;;;;;;;1.69;100.00;97954.47;4912631;29;20059;-83
2022/12/12 10:58:25;;;;;;;0.90;0.90;;;;;;;1.66;100.00;97971.66;4893675;29;20084;-81
2022/12/12 11:01:00;;;;;;;0.80;0.80;;;;;;;1.63;100.00;97961.47;4906544;29;20130;-82
2022/12/12 11:03:33;;;;;;;0.80;0.80;;;;;;;1.66;100.00;97955.72;4926593;29;20051;-82
2022/12/12 11:06:04;;;;;;;0.90;0.90;;;;;;;1.69;100.00;97965.09;4908722;29;20056;-81
2022/12/12 11:08:39;;;;;;;0.90;0.90;;;;;;;1.64;100.00;97981.69;4894975;29;20601;-82
2022/12/12 11:11:20;;;;;;;0.82;0.82;;;;;;;1.60;100.00;97955.78;4881251;29;20052;-82
2022/12/12 11:13:54;;;;;;;0.80;0.80;;;;;;;1.63;100.00;97944.69;4881492;29;20142;-81
2022/12/12 11:16:29;;;;;;;0.90;0.90;;;;;;;1.64;100.00;97946.31;4907598;29;20154;-82
2022/12/12 11:19:05;;;;;;;0.90;0.90;;;;;;;1.63;100.00;97956.16;4893888;29;20107;-82
2022/12/12 11:21:35;;;;;;;0.90;0.90;;;;;;;1.61;100.00;97968.03;4912041;29;20060;-82
2022/12/12 11:24:07;;;;;;;0.80;0.80;;;;;;;1.60;100.00;97956.56;4894307;29;20064;-82
2022/12/12 11:26:45;;;;;;;0.80;0.80;;;;;;;1.59;100.00;97952.25;4912137;29;20072;-81
2022/12/12 11:29:33;;;;;;;0.80;0.80;;;;;;;1.60;100.00;97951.25;4895435;29;20130;-82
2022/12/12 11:32:01;;;;;;;0.90;0.90;;;;;;;1.58;100.00;97952.50;4894560;29;20079;-82
2022/12/12 11:34:44;;;;;;;0.90;0.90;;;;;;;1.55;100.00;97947.59;4894801;29;20118;-84
2022/12/12 11:37:15;;;;;;;0.90;0.90;;;;;;;1.56;100.00;97942.06;4888071;29;20096;-84
2022/12/12 11:39:44;;;;;;;0.80;0.80;;;;;;;1.57;100.00;97940.22;4908529;29;20052;-82
2022/12/12 11:42:14;;;;;;;0.80;0.80;;;;;;;1.60;100.00;97945.13;4883470;29;20586;-81
2022/12/12 11:44:43;;;;;;;0.90;0.90;;;;;;;1.61;100.00;97952.06;4908166;29;20056;-82
2022/12/12 11:47:37;;;;;;;0.90;0.90;;;;;;;1.59;100.00;97941.63;4878767;29;20055;-83
2022/12/12 11:50:19;;;;;;;0.90;0.90;;;;;;;1.53;100.00;97931.84;4913047;29;20058;-82
2022/12/12 11:52:47;;;;;;;0.88;0.88;;;;;;;1.48;100.00;97929.81;4910594;29;20060;-81
2022/12/12 11:55:41;;;;;;;0.90;0.90;;;;;;;1.50;100.00;97951.72;4900441;29;20168;-83
2022/12/12 11:58:16;;;;;;;0.90;0.90;;;;;;;1.54;100.00;97952.09;4874657;29;20056;-82
2022/12/12 12:01:10;;;;;;;0.80;0.80;;;;;;;1.50;100.00;97950.91;4905253;29;20147;-81
2022/12/12 12:04:06;;;;;;;0.90;0.90;;;;;;;1.51;100.00;97948.00;4888490;29;20061;-81
2022/12/12 12:07:05;;;;;;;0.80;0.80;;;;;;;1.51;100.00;97941.88;4891822;29;20085;-83
2022/12/12 12:09:50;;;;;;;0.80;0.80;;;;;;;1.52;100.00;97940.88;4907767;29;20056;-82
2022/12/12 12:12:27;;;;;;;0.90;0.90;;;;;;;1.49;100.00;97954.56;4908261;29;20060;-81